createdAt,value
2019-01-14T00:00:06.535Z,79.18
2019-01-14T00:01:06.473Z,79.73
2019-01-14T00:02:06.461Z,80.15
2019-01-14T00:03:06.455Z,79.32
2019-01-14T00:04:06.442Z,79.73
2019-01-14T00:05:06.430Z,79.52
2019-01-14T00:06:10.278Z,79.22
2019-01-14T00:07:06.410Z,78.49
2019-01-14T00:08:06.397Z,78.28
2019-01-14T00:09:06.385Z,78.80
2019-01-14T00:10:06.518Z,77.73
2019-01-14T00:11:06.365Z,77.32
2019-01-14T00:12:06.357Z,77.36
2019-01-14T00:13:06.345Z,77.04
2019-01-14T00:14:06.331Z,74.15
2019-01-14T00:15:06.321Z,74.88
2019-01-14T00:16:06.353Z,74.77
2019-01-14T00:17:06.301Z,74.57
2019-01-14T00:18:06.295Z,74.57
2019-01-14T00:19:06.285Z,74.88
2019-01-14T00:20:06.268Z,74.05
2019-01-14T00:21:06.259Z,74.57
2019-01-14T00:22:06.258Z,74.05
2019-01-14T00:23:06.244Z,72.50
2019-01-14T00:24:06.225Z,72.09
2019-01-14T00:25:06.222Z,71.67
2019-01-14T00:26:06.209Z,71.98
2019-01-14T00:27:06.202Z,72.40
2019-01-14T00:28:06.187Z,72.19
2019-01-14T00:29:06.174Z,72.71
2019-01-14T00:30:06.160Z,72.64
2019-01-14T00:31:06.152Z,72.12
2019-01-14T00:32:06.153Z,72.95
2019-01-14T00:33:06.126Z,72.64
2019-01-14T00:34:06.124Z,72.12
2019-01-14T00:35:06.104Z,71.92
2019-01-14T00:36:06.095Z,72.40
2019-01-14T00:37:06.093Z,72.74
2019-01-14T00:38:06.080Z,72.64
2019-01-14T00:39:06.069Z,72.64
2019-01-14T00:40:06.054Z,72.74
2019-01-14T00:41:06.039Z,72.43
2019-01-14T00:42:06.034Z,72.43
2019-01-14T00:43:06.027Z,73.16
2019-01-14T00:44:06.015Z,74.40
2019-01-14T00:45:05.996Z,76.26
2019-01-14T00:46:05.991Z,76.46
2019-01-14T00:47:05.975Z,76.26
2019-01-14T00:48:05.973Z,75.98
2019-01-14T00:49:05.964Z,74.43
2019-01-14T00:50:05.956Z,74.53
2019-01-14T00:51:05.932Z,74.84
2019-01-14T00:52:05.920Z,74.43
2019-01-14T00:53:05.929Z,74.95
2019-01-14T00:54:05.905Z,74.22
2019-01-14T00:55:05.895Z,72.98
2019-01-14T00:56:05.878Z,73.50
2019-01-14T00:57:05.876Z,73.71
2019-01-14T00:58:05.856Z,72.16
2019-01-14T00:59:05.845Z,72.47
2019-01-14T01:00:05.850Z,72.78
2019-01-14T01:01:05.866Z,72.36
2019-01-14T01:02:05.818Z,72.36
2019-01-14T01:03:05.802Z,72.67
2019-01-14T01:04:05.800Z,72.47
2019-01-14T01:05:05.787Z,72.36
2019-01-14T01:06:05.778Z,72.57
2019-01-14T01:07:05.787Z,72.16
2019-01-14T01:08:05.750Z,72.57
2019-01-14T01:09:05.740Z,72.26
2019-01-14T01:10:05.734Z,72.67
2019-01-14T01:11:05.727Z,72.16
2019-01-14T01:12:05.707Z,72.47
2019-01-14T01:13:05.707Z,72.26
2019-01-14T01:14:05.691Z,72.47
2019-01-14T01:15:05.675Z,72.26
2019-01-14T01:16:05.665Z,72.16
2019-01-14T01:17:05.662Z,72.05
2019-01-14T01:18:05.695Z,72.57
2019-01-14T01:19:05.637Z,73.50
2019-01-14T01:20:05.622Z,72.98
2019-01-14T01:21:05.616Z,74.02
2019-01-14T01:22:05.611Z,74.12
2019-01-14T01:23:05.592Z,74.33
2019-01-14T01:24:05.598Z,74.95
2019-01-14T01:25:05.573Z,74.57
2019-01-14T01:26:05.573Z,74.63
2019-01-14T01:27:05.546Z,75.19
2019-01-14T01:28:05.550Z,76.01
2019-01-14T01:29:05.533Z,75.81
2019-01-14T01:30:05.524Z,75.70
2019-01-14T01:31:05.507Z,76.53
2019-01-14T01:32:05.511Z,76.53
2019-01-14T01:33:05.487Z,76.95
2019-01-14T01:34:05.484Z,76.78
2019-01-14T01:35:05.462Z,76.43
2019-01-14T01:36:05.456Z,75.81
2019-01-14T01:37:05.446Z,76.12
2019-01-14T01:38:05.428Z,76.12
2019-01-14T01:39:05.426Z,76.05
2019-01-14T01:40:05.409Z,75.95
2019-01-14T01:41:05.434Z,76.26
2019-01-14T01:42:05.388Z,75.43
2019-01-14T01:43:05.380Z,75.12
2019-01-14T01:44:05.371Z,76.12
2019-01-14T01:45:05.359Z,75.95
2019-01-14T01:46:05.352Z,76.01
2019-01-14T01:47:05.343Z,76.05
2019-01-14T01:48:05.329Z,76.26
2019-01-14T01:49:05.312Z,76.05
2019-01-14T01:50:05.307Z,76.15
2019-01-14T01:51:05.334Z,75.95
2019-01-14T01:52:05.290Z,76.26
2019-01-14T01:53:05.276Z,76.57
2019-01-14T01:54:05.261Z,76.26
2019-01-14T01:55:05.249Z,76.67
2019-01-14T01:56:05.238Z,76.67
2019-01-14T01:57:05.260Z,76.98
2019-01-14T01:58:05.226Z,77.09
2019-01-14T01:59:05.211Z,77.50
2019-01-14T02:00:05.199Z,78.02
2019-01-14T02:01:05.190Z,76.57
2019-01-14T02:02:05.196Z,76.98
2019-01-14T02:03:05.168Z,77.91
2019-01-14T02:04:05.156Z,78.12
2019-01-14T02:05:05.146Z,77.70
2019-01-14T02:06:05.133Z,76.98
2019-01-14T02:07:05.121Z,78.02
2019-01-14T02:08:05.141Z,77.91
2019-01-14T02:09:05.104Z,77.91
2019-01-14T02:10:05.092Z,78.22
2019-01-14T02:11:05.077Z,78.33
2019-01-14T02:12:05.072Z,78.53
2019-01-14T02:13:05.063Z,77.60
2019-01-14T02:14:05.066Z,78.33
2019-01-14T02:15:05.043Z,76.26
2019-01-14T02:16:05.037Z,76.57
2019-01-14T02:17:05.015Z,76.15
2019-01-14T02:18:05.049Z,76.36
2019-01-14T02:19:04.998Z,76.67
2019-01-14T02:20:04.988Z,76.88
2019-01-14T02:21:04.982Z,76.67
2019-01-14T02:22:04.966Z,76.57
2019-01-14T02:23:04.950Z,76.26
2019-01-14T02:24:04.954Z,76.26
2019-01-14T02:25:04.934Z,76.05
2019-01-14T02:26:04.919Z,76.05
2019-01-14T02:27:04.915Z,76.46
2019-01-14T02:28:04.902Z,76.57
2019-01-14T02:29:04.925Z,75.02
2019-01-14T02:30:04.881Z,74.71
2019-01-14T02:31:04.865Z,76.57
2019-01-14T02:32:04.872Z,75.02
2019-01-14T02:33:04.845Z,75.26
2019-01-14T02:34:04.834Z,75.12
2019-01-14T02:35:04.836Z,75.22
2019-01-14T02:36:04.825Z,75.95
2019-01-14T02:37:04.800Z,75.84
2019-01-14T02:38:04.798Z,74.81
2019-01-14T02:39:04.789Z,74.91
2019-01-14T02:40:04.777Z,75.02
2019-01-14T02:41:04.787Z,75.05
2019-01-14T02:42:04.753Z,75.02
2019-01-14T02:43:04.744Z,74.60
2019-01-14T02:44:04.736Z,74.50
2019-01-14T02:45:04.720Z,74.84
2019-01-14T02:46:04.725Z,74.50
2019-01-14T02:47:04.707Z,75.12
2019-01-14T02:48:04.697Z,74.74
2019-01-14T02:49:04.675Z,74.40
2019-01-14T02:50:04.669Z,74.60
2019-01-14T02:51:04.653Z,74.08
2019-01-14T02:52:04.693Z,73.98
2019-01-14T02:53:04.638Z,74.19
2019-01-14T02:54:04.624Z,74.08
2019-01-14T02:55:04.611Z,74.19
2019-01-14T02:56:04.607Z,74.50
2019-01-14T02:57:04.590Z,74.29
2019-01-14T02:58:04.586Z,73.98
2019-01-14T02:59:04.574Z,74.29
2019-01-14T03:00:04.567Z,74.19
2019-01-14T03:01:04.551Z,73.98
2019-01-14T03:02:04.541Z,73.60
2019-01-14T03:03:04.539Z,73.88
2019-01-14T03:04:04.513Z,73.88
2019-01-14T03:05:04.512Z,73.46
2019-01-14T03:06:04.499Z,73.25
2019-01-14T03:07:04.488Z,73.36
2019-01-14T03:08:04.512Z,73.05
2019-01-14T03:09:04.467Z,73.91
2019-01-14T03:10:04.468Z,73.05
2019-01-14T03:11:04.445Z,73.50
2019-01-14T03:12:04.434Z,73.05
2019-01-14T03:13:04.421Z,73.46
2019-01-14T03:14:04.449Z,73.29
2019-01-14T03:15:04.401Z,73.25
2019-01-14T03:16:04.386Z,73.36
2019-01-14T03:17:04.385Z,72.77
2019-01-14T03:18:04.370Z,72.74
2019-01-14T03:19:04.356Z,73.08
2019-01-14T03:20:04.359Z,73.29
2019-01-14T03:21:04.337Z,73.08
2019-01-14T03:22:04.328Z,73.19
2019-01-14T03:23:04.313Z,72.88
2019-01-14T03:24:04.310Z,72.88
2019-01-14T03:25:04.321Z,72.77
2019-01-14T03:26:04.293Z,73.08
2019-01-14T03:27:04.270Z,72.56
2019-01-14T03:28:04.318Z,72.98
2019-01-14T03:29:04.272Z,72.46
2019-01-14T03:30:04.243Z,72.56
2019-01-14T03:31:04.228Z,72.88
2019-01-14T03:32:04.236Z,72.67
2019-01-14T03:33:04.212Z,72.88
2019-01-14T03:34:04.201Z,72.56
2019-01-14T03:35:04.222Z,72.36
2019-01-14T03:36:04.180Z,72.36
2019-01-14T03:37:05.650Z,72.36
2019-01-14T03:38:04.159Z,71.33
2019-01-14T03:39:04.142Z,71.53
2019-01-14T03:40:04.132Z,71.33
2019-01-14T03:41:04.135Z,71.53
2019-01-14T03:42:04.116Z,71.73
2019-01-14T03:43:04.099Z,72.36
2019-01-14T03:44:04.096Z,72.77
2019-01-14T03:45:04.078Z,72.67
2019-01-14T03:46:04.081Z,72.56
2019-01-14T03:47:04.069Z,72.88
2019-01-14T03:48:04.051Z,72.56
2019-01-14T03:49:04.036Z,72.77
2019-01-14T03:50:04.024Z,72.88
2019-01-14T03:51:04.018Z,72.56
2019-01-14T03:52:04.030Z,72.81
2019-01-14T03:53:04.006Z,72.77
2019-01-14T03:54:03.984Z,72.77
2019-01-14T03:55:03.979Z,72.46
2019-01-14T03:56:03.960Z,72.46
2019-01-14T03:57:03.963Z,72.29
2019-01-14T03:58:03.944Z,71.33
2019-01-14T03:59:03.939Z,71.36
2019-01-14T04:00:03.918Z,71.46
2019-01-14T04:01:03.921Z,71.36
2019-01-14T04:02:03.902Z,71.46
2019-01-14T04:03:03.907Z,71.88
2019-01-14T04:04:03.883Z,72.19
2019-01-14T04:05:03.866Z,71.15
2019-01-14T04:06:03.858Z,71.46
2019-01-14T04:07:03.856Z,71.46
2019-01-14T04:08:03.841Z,70.84
2019-01-14T04:09:03.820Z,70.73
2019-01-14T04:10:03.816Z,70.73
2019-01-14T04:11:03.798Z,70.63
2019-01-14T04:12:03.794Z,70.11
2019-01-14T04:13:03.790Z,70.11
2019-01-14T04:14:03.774Z,70.32
2019-01-14T04:15:03.765Z,70.53
2019-01-14T04:16:03.752Z,70.01
2019-01-14T04:17:03.736Z,70.11
2019-01-14T04:18:03.724Z,70.01
2019-01-14T04:19:03.729Z,69.53
2019-01-14T04:20:03.703Z,69.63
2019-01-14T04:21:03.697Z,69.94
2019-01-14T04:22:03.682Z,69.84
2019-01-14T04:23:03.708Z,69.84
2019-01-14T04:24:04.808Z,69.94
2019-01-14T04:25:03.649Z,69.42
2019-01-14T04:26:03.644Z,70.04
2019-01-14T04:27:03.629Z,69.42
2019-01-14T04:28:03.621Z,69.42
2019-01-14T04:29:03.620Z,68.59
2019-01-14T04:30:03.609Z,68.80
2019-01-14T04:31:03.586Z,68.10
2019-01-14T04:32:03.578Z,67.90
2019-01-14T04:33:03.589Z,72.60
2019-01-14T04:34:03.568Z,69.73
2019-01-14T04:35:03.546Z,68.66
2019-01-14T04:36:03.529Z,67.73
2019-01-14T04:37:03.525Z,67.42
2019-01-14T04:38:03.515Z,65.07
2019-01-14T04:39:03.546Z,64.86
2019-01-14T04:40:03.533Z,64.76
2019-01-14T04:41:03.477Z,65.28
2019-01-14T04:42:03.471Z,65.20
2019-01-14T04:43:03.455Z,65.00
2019-01-14T04:44:03.444Z,64.82
2019-01-14T04:45:03.440Z,63.68
2019-01-14T04:46:03.432Z,64.72
2019-01-14T04:47:03.417Z,64.92
2019-01-14T04:48:03.402Z,63.78
2019-01-14T04:49:03.397Z,64.82
2019-01-14T04:50:03.390Z,65.34
2019-01-14T04:51:03.447Z,65.23
2019-01-14T04:52:03.366Z,65.13
2019-01-14T04:53:03.348Z,65.47
2019-01-14T04:54:03.343Z,64.75
2019-01-14T04:55:03.335Z,64.43
2019-01-14T04:56:03.355Z,64.33
2019-01-14T04:57:03.315Z,64.64
2019-01-14T04:58:03.300Z,64.43
2019-01-14T04:59:03.286Z,64.23
2019-01-14T05:00:03.273Z,64.15
2019-01-14T05:01:03.268Z,64.02
2019-01-14T05:02:03.265Z,64.04
2019-01-14T05:03:03.247Z,63.40
2019-01-14T05:04:03.238Z,63.84
2019-01-14T05:05:03.221Z,63.53
2019-01-14T05:06:03.217Z,63.84
2019-01-14T05:07:03.207Z,63.73
2019-01-14T05:08:03.193Z,63.94
2019-01-14T05:09:03.177Z,64.04
2019-01-14T05:10:03.168Z,64.04
2019-01-14T05:11:03.163Z,64.15
2019-01-14T05:12:03.165Z,63.63
2019-01-14T05:13:03.139Z,63.66
2019-01-14T05:14:03.129Z,63.11
2019-01-14T05:15:03.120Z,63.11
2019-01-14T05:16:03.107Z,63.84
2019-01-14T05:17:03.098Z,64.15
2019-01-14T05:18:03.113Z,64.28
2019-01-14T05:19:03.077Z,64.04
2019-01-14T05:20:03.063Z,63.94
2019-01-14T05:21:03.051Z,63.45
2019-01-14T05:22:03.044Z,63.11
2019-01-14T05:23:03.031Z,65.19
2019-01-14T05:24:03.040Z,66.54
2019-01-14T05:25:03.005Z,66.51
2019-01-14T05:26:03.003Z,64.33
2019-01-14T05:27:03.043Z,62.90
2019-01-14T05:28:02.979Z,63.11
2019-01-14T05:29:02.973Z,63.94
2019-01-14T05:30:02.962Z,63.42
2019-01-14T05:31:02.949Z,63.73
2019-01-14T05:32:02.935Z,63.73
2019-01-14T05:33:02.919Z,64.15
2019-01-14T05:34:02.962Z,64.15
2019-01-14T05:35:02.933Z,63.84
2019-01-14T05:36:02.893Z,64.04
2019-01-14T05:37:02.880Z,64.36
2019-01-14T05:38:11.627Z,64.15
2019-01-14T05:39:02.854Z,63.73
2019-01-14T05:40:02.873Z,63.42
2019-01-14T05:41:02.837Z,62.90
2019-01-14T05:42:02.836Z,63.63
2019-01-14T05:43:02.816Z,63.63
2019-01-14T05:44:02.807Z,63.94
2019-01-14T05:45:02.809Z,64.04
2019-01-14T05:46:02.788Z,63.42
2019-01-14T05:47:02.768Z,63.11
2019-01-14T05:48:02.777Z,63.53
2019-01-14T05:49:02.752Z,62.80
2019-01-14T05:50:02.752Z,63.32
2019-01-14T05:51:02.736Z,63.73
2019-01-14T05:52:02.723Z,63.63
2019-01-14T05:53:02.709Z,62.80
2019-01-14T05:54:02.706Z,63.01
2019-01-14T05:55:02.683Z,63.32
2019-01-14T05:56:02.676Z,63.53
2019-01-14T05:57:02.673Z,63.42
2019-01-14T05:58:02.667Z,63.63
2019-01-14T05:59:02.641Z,63.63
2019-01-14T06:00:02.642Z,63.84
2019-01-14T06:01:02.748Z,68.93
2019-01-14T06:02:02.610Z,67.24
2019-01-14T06:03:02.614Z,65.26
2019-01-14T06:04:02.587Z,62.36
2019-01-14T06:05:02.592Z,61.74
2019-01-14T06:06:02.575Z,62.15
2019-01-14T06:07:02.572Z,62.67
2019-01-14T06:08:02.551Z,62.57
2019-01-14T06:09:02.536Z,63.11
2019-01-14T06:10:02.525Z,63.63
2019-01-14T06:11:02.517Z,62.80
2019-01-14T06:12:02.551Z,63.11
2019-01-14T06:13:02.498Z,63.01
2019-01-14T06:14:02.490Z,63.11
2019-01-14T06:15:02.479Z,63.21
2019-01-14T06:16:02.468Z,63.66
2019-01-14T06:17:02.454Z,63.32
2019-01-14T06:18:02.455Z,63.66
2019-01-14T06:19:02.434Z,63.14
2019-01-14T06:20:02.434Z,64.07
2019-01-14T06:21:02.406Z,63.76
2019-01-14T06:22:02.401Z,64.18
2019-01-14T06:23:02.397Z,63.76
2019-01-14T06:24:02.381Z,64.62
2019-01-14T06:25:02.372Z,64.90
2019-01-14T06:26:02.366Z,65.11
2019-01-14T06:27:02.347Z,65.53
2019-01-14T06:28:02.336Z,65.53
2019-01-14T06:29:02.357Z,65.56
2019-01-14T06:30:02.319Z,66.08
2019-01-14T06:31:02.308Z,65.77
2019-01-14T06:32:02.288Z,65.87
2019-01-14T06:33:02.283Z,65.66
2019-01-14T06:34:02.276Z,65.77
2019-01-14T06:35:02.271Z,66.81
2019-01-14T06:36:02.269Z,66.91
2019-01-14T06:37:02.247Z,67.12
2019-01-14T06:38:02.231Z,67.64
2019-01-14T06:39:02.215Z,67.33
2019-01-14T06:40:02.206Z,67.33
2019-01-14T06:41:02.199Z,67.95
2019-01-14T06:42:02.201Z,68.57
2019-01-14T06:43:02.178Z,67.95
2019-01-14T06:44:02.167Z,68.16
2019-01-14T06:45:02.216Z,68.78
2019-01-14T06:46:02.146Z,68.99
2019-01-14T06:47:02.149Z,68.88
2019-01-14T06:48:02.148Z,69.20
2019-01-14T06:49:02.113Z,70.03
2019-01-14T06:50:02.099Z,69.09
2019-01-14T06:51:02.090Z,69.51
2019-01-14T06:52:02.080Z,68.68
2019-01-14T06:53:02.080Z,69.92
2019-01-14T06:54:02.055Z,70.44
2019-01-14T06:55:02.048Z,69.82
2019-01-14T06:56:02.040Z,69.71
2019-01-14T06:57:02.027Z,70.65
2019-01-14T06:58:02.024Z,70.13
2019-01-14T06:59:02.011Z,70.75
2019-01-14T07:00:01.997Z,70.86
2019-01-14T07:01:01.981Z,73.87
2019-01-14T07:02:01.972Z,75.46
2019-01-14T07:03:01.996Z,76.19
2019-01-14T07:04:01.951Z,77.48
2019-01-14T07:05:01.937Z,78.06
2019-01-14T07:06:01.931Z,78.41
2019-01-14T07:07:01.915Z,79.66
2019-01-14T07:08:01.908Z,81.22
2019-01-14T07:09:01.912Z,83.23
2019-01-14T07:10:01.902Z,84.48
2019-01-14T07:11:01.875Z,84.59
2019-01-14T07:12:02.629Z,84.69
2019-01-14T07:13:01.866Z,86.08
2019-01-14T07:14:01.852Z,86.50
2019-01-14T07:15:01.833Z,86.40
2019-01-14T07:16:01.831Z,84.42
2019-01-14T07:17:01.809Z,85.56
2019-01-14T07:18:01.794Z,85.25
2019-01-14T07:19:01.799Z,84.63
2019-01-14T07:20:01.786Z,84.31
2019-01-14T07:21:01.778Z,84.52
2019-01-14T07:22:01.752Z,83.27
2019-01-14T07:23:01.754Z,84.11
2019-01-14T07:24:01.736Z,83.69
2019-01-14T07:25:01.771Z,82.34
2019-01-14T07:26:01.709Z,79.94
2019-01-14T07:27:01.706Z,79.63
2019-01-14T07:28:01.695Z,79.07
2019-01-14T07:29:01.696Z,77.86
2019-01-14T07:30:01.666Z,76.37
2019-01-14T07:31:01.673Z,75.64
2019-01-14T07:32:01.654Z,76.47
2019-01-14T07:33:01.647Z,75.64
2019-01-14T07:34:01.631Z,74.77
2019-01-14T07:35:02.296Z,73.63
2019-01-14T07:36:01.631Z,72.07
2019-01-14T07:37:01.591Z,71.97
2019-01-14T07:38:06.699Z,71.34
2019-01-14T07:39:02.579Z,71.23
2019-01-14T07:40:01.560Z,69.99
2019-01-14T07:41:01.582Z,69.78
2019-01-14T07:42:01.542Z,69.68
2019-01-14T07:43:01.526Z,69.05
2019-01-14T07:44:01.516Z,65.83
2019-01-14T07:45:01.509Z,66.03
2019-01-14T07:46:01.499Z,65.90
2019-01-14T07:47:01.492Z,65.62
2019-01-14T07:48:01.477Z,65.72
2019-01-14T07:49:01.469Z,64.17
2019-01-14T07:50:01.453Z,63.62
2019-01-14T07:51:01.441Z,64.06
2019-01-14T07:52:01.446Z,63.23
2019-01-14T07:53:01.419Z,63.23
2019-01-14T07:54:01.409Z,62.29
2019-01-14T07:55:01.399Z,62.16
2019-01-14T07:56:01.387Z,62.26
2019-01-14T07:57:01.433Z,62.57
2019-01-14T07:58:01.372Z,62.88
2019-01-14T07:59:01.361Z,64.03
2019-01-14T08:00:01.348Z,63.51
2019-01-14T08:01:01.334Z,63.41
2019-01-14T08:02:01.327Z,63.41
2019-01-14T08:03:01.319Z,63.72
2019-01-14T08:04:01.302Z,63.62
2019-01-14T08:05:01.296Z,64.14
2019-01-14T08:06:01.291Z,64.24
2019-01-14T08:07:01.271Z,64.34
2019-01-14T08:08:01.297Z,65.17
2019-01-14T08:09:01.252Z,65.48
2019-01-14T08:10:01.243Z,65.38
2019-01-14T08:11:01.230Z,66.11
2019-01-14T08:12:01.214Z,66.00
2019-01-14T08:13:01.204Z,66.11
2019-01-14T08:14:01.232Z,65.69
2019-01-14T08:15:01.193Z,65.69
2019-01-14T08:16:01.181Z,66.11
2019-01-14T08:17:01.167Z,65.45
2019-01-14T08:18:01.159Z,65.87
2019-01-14T08:19:01.142Z,65.56
2019-01-14T08:20:01.169Z,65.87
2019-01-14T08:21:01.119Z,65.87
2019-01-14T08:22:01.118Z,66.18
2019-01-14T08:23:01.100Z,65.45
2019-01-14T08:24:01.086Z,64.11
2019-01-14T08:25:01.081Z,64.11
2019-01-14T08:26:01.078Z,63.90
2019-01-14T08:27:01.057Z,64.11
2019-01-14T08:28:01.045Z,64.00
2019-01-14T08:29:01.038Z,64.00
2019-01-14T08:30:01.034Z,63.90
2019-01-14T08:31:01.022Z,64.21
2019-01-14T08:32:01.007Z,64.62
2019-01-14T08:33:00.993Z,64.52
2019-01-14T08:34:00.991Z,63.97
2019-01-14T08:35:00.983Z,63.97
2019-01-14T08:36:01.022Z,63.76
2019-01-14T08:37:01.028Z,63.76
2019-01-14T08:38:00.945Z,63.56
2019-01-14T08:39:00.927Z,63.21
2019-01-14T08:40:00.921Z,63.04
2019-01-14T08:41:00.906Z,63.66
2019-01-14T08:42:00.913Z,63.35
2019-01-14T08:43:00.888Z,63.04
2019-01-14T08:44:00.880Z,63.56
2019-01-14T08:45:00.867Z,63.76
2019-01-14T08:46:00.853Z,63.21
2019-01-14T08:47:00.862Z,63.63
2019-01-14T08:48:00.838Z,62.28
2019-01-14T08:49:00.820Z,62.18
2019-01-14T08:50:00.810Z,61.45
2019-01-14T08:51:00.803Z,60.83
2019-01-14T08:52:00.791Z,60.83
2019-01-14T08:53:00.787Z,60.72
2019-01-14T08:54:00.781Z,60.80
2019-01-14T08:55:00.757Z,61.01
2019-01-14T08:56:00.752Z,60.39
2019-01-14T08:57:00.753Z,59.06
2019-01-14T08:58:00.732Z,59.58
2019-01-14T08:59:00.727Z,60.00
2019-01-14T09:00:00.708Z,60.52
2019-01-14T09:01:00.700Z,60.72
2019-01-14T09:02:00.688Z,60.72
2019-01-14T09:03:00.681Z,60.00
2019-01-14T09:04:00.666Z,59.56
2019-01-14T09:05:00.650Z,59.48
2019-01-14T09:06:00.643Z,59.87
2019-01-14T09:07:00.628Z,59.45
2019-01-14T09:08:00.633Z,59.11
2019-01-14T09:09:00.611Z,59.01
2019-01-14T09:10:00.599Z,58.91
2019-01-14T09:11:00.585Z,59.53
2019-01-14T09:12:00.582Z,58.39
2019-01-14T09:13:00.604Z,56.83
2019-01-14T09:14:00.559Z,57.56
2019-01-14T09:15:00.551Z,57.24
2019-01-14T09:16:00.534Z,57.24
2019-01-14T09:17:00.524Z,57.56
2019-01-14T09:18:02.826Z,57.35
2019-01-14T09:19:00.507Z,58.07
2019-01-14T09:20:00.496Z,57.56
2019-01-14T09:21:00.484Z,57.24
2019-01-14T09:22:00.468Z,57.32
2019-01-14T09:23:00.469Z,56.91
2019-01-14T09:24:00.458Z,56.91
2019-01-14T09:25:00.523Z,57.09
2019-01-14T09:26:00.429Z,56.54
2019-01-14T09:27:00.425Z,55.30
2019-01-14T09:28:00.408Z,55.10
2019-01-14T09:29:00.440Z,55.30
2019-01-14T09:30:00.421Z,56.52
2019-01-14T09:31:00.377Z,53.52
2019-01-14T09:32:00.372Z,53.10
2019-01-14T09:33:00.353Z,54.14
2019-01-14T09:34:00.340Z,54.76
2019-01-14T09:35:00.336Z,55.07
2019-01-14T09:36:00.321Z,53.83
2019-01-14T09:37:00.310Z,53.62
2019-01-14T09:38:00.302Z,53.00
2019-01-14T09:39:00.322Z,53.31
2019-01-14T09:40:00.275Z,53.31
2019-01-14T09:41:00.262Z,54.45
2019-01-14T09:42:00.256Z,54.14
2019-01-14T09:43:00.248Z,53.52
2019-01-14T09:44:00.237Z,53.20
2019-01-14T09:45:00.228Z,53.41
2019-01-14T09:46:00.244Z,53.31
2019-01-14T09:47:00.206Z,53.18
2019-01-14T09:48:00.202Z,53.39
2019-01-14T09:49:00.180Z,53.26
2019-01-14T09:50:00.248Z,53.47
2019-01-14T09:51:00.162Z,52.75
2019-01-14T09:52:00.157Z,52.64
2019-01-14T09:53:00.133Z,52.36
2019-01-14T09:54:00.122Z,51.42
2019-01-14T09:55:00.213Z,52.67
2019-01-14T09:56:01.097Z,55.33
2019-01-14T09:57:00.136Z,54.38
2019-01-14T09:58:00.083Z,52.28
2019-01-14T09:59:00.068Z,49.93
2019-01-14T10:00:00.158Z,49.91
2019-01-14T10:01:00.055Z,50.65
2019-01-14T10:02:00.053Z,50.26
2019-01-14T10:03:00.033Z,49.54
2019-01-14T10:04:00.012Z,49.85
2019-01-14T10:05:00.005Z,49.00
2019-01-14T10:06:00.017Z,48.87
2019-01-14T10:06:59.992Z,49.29
2019-01-14T10:07:59.986Z,49.70
2019-01-14T10:08:59.964Z,50.63
2019-01-14T10:09:59.954Z,51.04
2019-01-14T10:10:59.968Z,50.24
2019-01-14T10:11:59.932Z,51.50
2019-01-14T10:12:59.919Z,51.07
2019-01-14T10:13:59.910Z,51.17
2019-01-14T10:14:59.935Z,50.65
2019-01-14T10:15:59.883Z,51.28
2019-01-14T10:16:59.882Z,50.76
2019-01-14T10:17:59.864Z,51.61
2019-01-14T10:18:59.900Z,50.89
2019-01-14T10:19:59.846Z,50.89
2019-01-14T10:20:59.829Z,50.96
2019-01-14T10:21:59.828Z,50.55
2019-01-14T10:22:59.818Z,51.50
2019-01-14T10:23:59.801Z,51.89
2019-01-14T10:24:59.810Z,50.96
2019-01-14T10:25:59.779Z,50.76
2019-01-14T10:26:59.769Z,51.89
2019-01-14T10:27:59.760Z,52.64
2019-01-14T10:28:59.750Z,51.84
2019-01-14T10:29:59.737Z,52.77
2019-01-14T10:30:59.743Z,53.08
2019-01-14T10:31:59.715Z,53.26
2019-01-14T10:32:59.704Z,53.49
2019-01-14T10:33:59.704Z,53.47
2019-01-14T10:34:59.683Z,52.64
2019-01-14T10:35:59.671Z,53.05
2019-01-14T10:36:59.667Z,53.57
2019-01-14T10:37:59.648Z,53.13
2019-01-14T10:38:59.649Z,53.65
2019-01-14T10:39:59.630Z,53.44
2019-01-14T10:40:59.617Z,53.73
2019-01-14T10:41:59.611Z,53.63
2019-01-14T10:42:59.606Z,52.51
2019-01-14T10:43:59.580Z,53.44
2019-01-14T10:44:59.592Z,53.57
2019-01-14T10:45:59.577Z,53.26
2019-01-14T10:46:59.561Z,52.02
2019-01-14T10:47:59.537Z,52.41
2019-01-14T10:48:59.532Z,52.93
2019-01-14T10:49:59.515Z,51.45
2019-01-14T10:50:59.504Z,51.12
2019-01-14T10:51:59.526Z,51.15
2019-01-14T10:52:59.491Z,52.41
2019-01-14T10:53:59.476Z,50.57
2019-01-14T10:54:59.483Z,51.09
2019-01-14T10:55:59.505Z,51.84
2019-01-14T10:56:59.439Z,52.67
2019-01-14T10:57:59.427Z,52.25
2019-01-14T10:58:59.423Z,51.32
2019-01-14T10:59:59.413Z,51.01
2019-01-14T11:00:59.413Z,51.63
2019-01-14T11:01:59.398Z,50.80
2019-01-14T11:02:59.380Z,52.25
2019-01-14T11:03:59.367Z,51.21
2019-01-14T11:04:59.361Z,50.49
2019-01-14T11:05:59.347Z,50.18
2019-01-14T11:06:59.355Z,51.42
2019-01-14T11:07:59.323Z,50.80
2019-01-14T11:09:05.641Z,50.29
2019-01-14T11:10:00.302Z,50.08
2019-01-14T11:10:59.295Z,51.21
2019-01-14T11:11:59.330Z,50.49
2019-01-14T11:12:59.266Z,52.46
2019-01-14T11:13:59.266Z,52.98
2019-01-14T11:15:02.868Z,52.17
2019-01-14T11:15:59.237Z,52.90
2019-01-14T11:16:59.222Z,52.07
2019-01-14T11:17:59.226Z,51.76
2019-01-14T11:18:59.206Z,52.07
2019-01-14T11:19:59.193Z,51.57
2019-01-14T11:20:59.188Z,51.57
2019-01-14T11:21:59.169Z,52.22
2019-01-14T11:22:59.175Z,52.95
2019-01-14T11:23:59.160Z,50.87
2019-01-14T11:24:59.136Z,51.08
2019-01-14T11:25:59.125Z,51.39
2019-01-14T11:26:59.116Z,50.51
2019-01-14T11:27:59.122Z,50.21
2019-01-14T11:28:59.160Z,50.60
2019-01-14T11:29:59.087Z,50.49
2019-01-14T11:30:59.120Z,50.26
2019-01-14T11:31:59.062Z,49.46
2019-01-14T11:32:59.064Z,50.49
2019-01-14T11:33:59.043Z,50.31
2019-01-14T11:34:59.044Z,50.31
2019-01-14T11:35:59.019Z,49.58
2019-01-14T11:36:59.010Z,48.88
2019-01-14T11:37:59.027Z,49.61
2019-01-14T11:39:06.665Z,49.19
2019-01-14T11:39:58.989Z,50.54
2019-01-14T11:40:58.965Z,49.27
2019-01-14T11:41:58.972Z,50.21
2019-01-14T11:42:58.946Z,49.56
2019-01-14T11:43:58.934Z,49.46
2019-01-14T11:44:58.922Z,49.56
2019-01-14T11:45:58.923Z,49.56
2019-01-14T11:46:58.898Z,49.35
2019-01-14T11:47:58.892Z,49.04
2019-01-14T11:48:58.889Z,48.55
2019-01-14T11:49:58.866Z,49.07
2019-01-14T11:50:58.925Z,48.96
2019-01-14T11:51:58.854Z,49.48
2019-01-14T11:52:58.837Z,48.88
2019-01-14T11:53:58.826Z,50.54
2019-01-14T11:54:58.811Z,50.33
2019-01-14T11:55:58.816Z,50.23
2019-01-14T11:56:58.790Z,49.30
2019-01-14T11:57:58.785Z,48.69
2019-01-14T11:58:58.776Z,48.80
2019-01-14T11:59:58.757Z,48.28
2019-01-14T12:00:58.756Z,48.90
2019-01-14T12:01:58.734Z,50.38
2019-01-14T12:02:58.734Z,48.93
2019-01-14T12:03:58.718Z,49.03
2019-01-14T12:04:58.711Z,49.86
2019-01-14T12:05:58.693Z,48.41
2019-01-14T12:06:58.730Z,48.51
2019-01-14T12:07:58.671Z,48.41
2019-01-14T12:08:58.664Z,48.22
2019-01-14T12:09:58.653Z,48.33
2019-01-14T12:10:58.641Z,47.71
2019-01-14T12:11:58.633Z,47.50
2019-01-14T12:12:58.631Z,47.60
2019-01-14T12:13:58.607Z,48.95
2019-01-14T12:14:58.597Z,49.57
2019-01-14T12:15:58.585Z,49.88
2019-01-14T12:16:58.629Z,49.96
2019-01-14T12:17:58.564Z,49.16
2019-01-14T12:18:58.558Z,49.70
2019-01-14T12:19:58.547Z,49.37
2019-01-14T12:20:58.537Z,49.78
2019-01-14T12:21:58.521Z,48.87
2019-01-14T12:22:58.542Z,50.61
2019-01-14T12:23:58.505Z,49.16
2019-01-14T12:24:58.494Z,48.93
2019-01-14T12:25:58.524Z,49.16
2019-01-14T12:26:58.468Z,49.65
2019-01-14T12:27:58.458Z,49.34
2019-01-14T12:28:58.449Z,49.03
2019-01-14T12:29:58.441Z,49.96
2019-01-14T12:30:58.428Z,50.48
2019-01-14T12:31:58.424Z,49.65
2019-01-14T12:32:58.404Z,50.07
2019-01-14T12:33:58.407Z,49.03
2019-01-14T12:34:58.398Z,49.76
2019-01-14T12:35:58.496Z,49.13
2019-01-14T12:36:58.363Z,48.72
2019-01-14T12:37:58.354Z,49.34
2019-01-14T12:38:58.345Z,49.65
2019-01-14T12:39:58.333Z,49.65
2019-01-14T12:40:58.324Z,48.95
2019-01-14T12:41:58.321Z,49.16
2019-01-14T12:42:58.315Z,48.95
2019-01-14T12:43:58.295Z,48.85
2019-01-14T12:44:58.282Z,49.16
2019-01-14T12:45:58.286Z,48.43
2019-01-14T12:46:58.272Z,49.05
2019-01-14T12:47:58.252Z,49.57
2019-01-14T12:48:58.238Z,49.26
2019-01-14T12:49:58.240Z,48.12
2019-01-14T12:50:58.215Z,49.57
2019-01-14T12:51:58.210Z,48.56